createdAt,value
2023-09-08T00:00:14.477Z,4.20
2023-09-08T00:03:27.163Z,4.10
2023-09-08T00:06:39.529Z,3.95
2023-09-08T00:09:52.208Z,4.00
2023-09-08T00:13:04.745Z,4.12
2023-09-08T00:16:17.725Z,4.37
2023-09-08T00:19:30.239Z,4.32
2023-09-08T00:22:42.993Z,4.47
2023-09-08T00:25:56.605Z,4.32
2023-09-08T00:29:09.317Z,4.37
2023-09-08T00:32:21.790Z,4.37
2023-09-08T00:35:34.538Z,4.32
2023-09-08T00:38:46.993Z,4.25
2023-09-08T00:41:59.636Z,4.32
2023-09-08T00:45:12.245Z,4.50
2023-09-08T00:48:25.078Z,4.43
2023-09-08T00:51:39.270Z,4.37
2023-09-08T00:54:52.089Z,4.15
2023-09-08T00:58:04.558Z,4.53
2023-09-08T01:01:18.673Z,4.62
2023-09-08T01:04:31.329Z,4.12
2023-09-08T01:07:44.171Z,4.75
2023-09-08T01:10:56.845Z,4.60
2023-09-08T01:14:09.595Z,4.75
2023-09-08T01:17:22.031Z,4.55
2023-09-08T01:20:54.677Z,4.40
2023-09-08T01:24:22.352Z,4.35
2023-09-08T01:27:35.361Z,4.22
2023-09-08T01:30:47.840Z,4.53
2023-09-08T01:34:01.933Z,4.15
2023-09-08T01:37:14.433Z,4.40
2023-09-08T01:40:27.093Z,4.25
2023-09-08T01:43:39.586Z,4.57
2023-09-08T01:46:57.761Z,4.68
2023-09-08T01:50:10.406Z,4.40
2023-09-08T01:53:23.073Z,4.65
2023-09-08T01:56:35.474Z,4.50
2023-09-08T01:59:49.089Z,4.75
2023-09-08T02:03:01.549Z,4.70
2023-09-08T02:06:14.261Z,5.62
2023-09-08T02:09:37.817Z,4.70
2023-09-08T02:12:50.479Z,5.07
2023-09-08T02:16:02.950Z,4.60
2023-09-08T02:19:16.035Z,4.87
2023-09-08T02:22:28.733Z,4.70
2023-09-08T02:25:41.377Z,4.53
2023-09-08T02:28:54.069Z,4.45
2023-09-08T02:32:06.789Z,4.75
2023-09-08T02:35:19.964Z,5.37
2023-09-08T02:38:33.560Z,5.00
2023-09-08T02:41:46.636Z,5.15
2023-09-08T02:44:59.077Z,5.25
2023-09-08T02:48:11.942Z,4.90
2023-09-08T02:51:24.495Z,5.25
2023-09-08T02:54:39.230Z,5.12
2023-09-08T02:57:51.679Z,5.30
2023-09-08T03:01:30.663Z,5.18
2023-09-08T03:04:43.189Z,5.12
2023-09-08T03:07:56.121Z,5.28
2023-09-08T03:11:08.832Z,4.80
2023-09-08T03:14:21.542Z,4.78
2023-09-08T03:17:33.923Z,4.97
2023-09-08T03:20:52.575Z,5.10
2023-09-08T03:24:05.343Z,5.22
2023-09-08T03:27:19.514Z,5.50
2023-09-08T03:30:31.955Z,5.00
2023-09-08T03:33:44.769Z,5.95
2023-09-08T03:36:57.628Z,6.03
2023-09-08T03:40:10.756Z,6.07
2023-09-08T03:43:23.493Z,5.70
2023-09-08T03:46:37.439Z,6.00
2023-09-08T03:49:49.975Z,5.55
2023-09-08T03:53:02.748Z,6.47
2023-09-08T03:56:15.233Z,5.95
2023-09-08T03:59:27.948Z,6.32
2023-09-08T04:02:40.354Z,6.43
2023-09-08T04:05:53.145Z,8.30
2023-09-08T04:09:05.621Z,7.18
2023-09-08T04:12:18.368Z,6.18
2023-09-08T04:15:30.799Z,7.80
2023-09-08T04:18:43.579Z,7.30
2023-09-08T04:21:56.333Z,7.10
2023-09-08T04:25:09.251Z,7.12
2023-09-08T04:28:21.671Z,6.35
2023-09-08T04:31:34.356Z,5.95
2023-09-08T04:34:46.865Z,6.05
2023-09-08T04:38:00.110Z,6.20
2023-09-08T04:41:14.332Z,6.43
2023-09-08T04:44:27.316Z,6.35
2023-09-08T04:47:40.045Z,7.07
2023-09-08T04:50:52.782Z,7.00
2023-09-08T04:54:05.570Z,6.55
2023-09-08T04:57:23.156Z,6.53
2023-09-08T05:00:39.784Z,6.47
2023-09-08T05:03:52.843Z,6.55
2023-09-08T05:07:05.346Z,6.65
2023-09-08T05:10:18.674Z,6.28
2023-09-08T05:13:32.349Z,6.28
2023-09-08T05:16:50.702Z,6.20
2023-09-08T05:20:04.524Z,6.22
2023-09-08T05:23:17.276Z,6.28
2023-09-08T05:26:29.824Z,6.60
2023-09-08T05:29:42.594Z,6.20
2023-09-08T05:32:55.151Z,6.10
2023-09-08T05:36:08.277Z,6.75
2023-09-08T05:39:22.189Z,6.28
2023-09-08T05:42:34.921Z,5.70
2023-09-08T05:45:47.405Z,6.10
2023-09-08T05:49:00.506Z,6.30
2023-09-08T05:52:13.506Z,6.05
2023-09-08T05:55:27.306Z,5.85
2023-09-08T05:58:40.569Z,5.78
2023-09-08T06:01:53.580Z,5.62
2023-09-08T06:05:06.551Z,5.45
2023-09-08T06:08:19.667Z,5.55
2023-09-08T06:11:32.424Z,5.97
2023-09-08T06:14:44.917Z,5.43
2023-09-08T06:17:58.151Z,5.40
2023-09-08T06:21:11.054Z,5.75
2023-09-08T06:24:23.916Z,5.65
2023-09-08T06:27:36.781Z,5.43
2023-09-08T06:30:49.540Z,5.60
2023-09-08T06:34:02.352Z,5.20
2023-09-08T06:37:15.269Z,5.22
2023-09-08T06:40:30.599Z,5.07
2023-09-08T06:43:44.020Z,5.60
2023-09-08T06:46:57.030Z,5.87
2023-09-08T06:50:11.141Z,5.03
2023-09-08T06:53:24.328Z,4.78
2023-09-08T06:56:38.279Z,5.40
2023-09-08T06:59:51.153Z,5.30
2023-09-08T07:03:04.228Z,5.55
2023-09-08T07:06:17.386Z,5.20
2023-09-08T07:09:30.297Z,5.10
2023-09-08T07:12:42.863Z,5.10
2023-09-08T07:15:56.085Z,5.12
2023-09-08T07:19:11.512Z,5.20
2023-09-08T07:22:24.697Z,5.30
2023-09-08T07:25:37.125Z,5.18
2023-09-08T07:28:50.572Z,5.07
2023-09-08T07:32:04.321Z,5.40
2023-09-08T07:35:18.084Z,5.57
2023-09-08T07:38:30.880Z,4.82
2023-09-08T07:41:43.876Z,5.35
2023-09-08T07:44:56.495Z,4.97
2023-09-08T07:48:09.237Z,4.90
2023-09-08T07:51:21.680Z,5.10
2023-09-08T07:54:34.447Z,5.05
2023-09-08T07:57:49.991Z,4.70
2023-09-08T08:01:02.697Z,5.00
2023-09-08T08:04:15.433Z,4.78
2023-09-08T08:07:27.892Z,4.90
2023-09-08T08:10:42.919Z,5.25
2023-09-08T08:13:55.566Z,4.45
2023-09-08T08:17:08.289Z,4.85
2023-09-08T08:20:20.876Z,5.35
2023-09-08T08:23:35.107Z,4.95
2023-09-08T08:26:48.122Z,4.82
2023-09-08T08:30:02.218Z,4.47
2023-09-08T08:33:15.601Z,4.75
2023-09-08T08:36:28.440Z,4.97
2023-09-08T08:39:40.810Z,5.18
2023-09-08T08:42:57.439Z,4.70
2023-09-08T08:46:10.802Z,4.45
2023-09-08T08:49:23.549Z,4.95
2023-09-08T08:52:35.944Z,4.72
2023-09-08T08:55:48.696Z,5.05
2023-09-08T08:59:02.182Z,4.95
2023-09-08T09:02:16.031Z,4.78
2023-09-08T09:05:28.500Z,4.50
2023-09-08T09:08:41.821Z,4.57
2023-09-08T09:11:54.354Z,5.05
2023-09-08T09:15:07.746Z,4.53
2023-09-08T09:18:20.332Z,4.70
2023-09-08T09:21:48.883Z,4.87
2023-09-08T09:25:01.839Z,4.57
2023-09-08T09:28:14.671Z,4.65
2023-09-08T09:31:27.200Z,5.10
2023-09-08T09:34:51.088Z,5.00
2023-09-08T09:38:03.696Z,4.80
2023-09-08T09:41:16.415Z,4.55
2023-09-08T09:44:28.956Z,5.15
2023-09-08T09:47:41.673Z,4.37
2023-09-08T09:50:54.949Z,4.28
2023-09-08T09:54:07.686Z,4.60
2023-09-08T09:57:21.848Z,4.62
2023-09-08T10:00:35.625Z,4.47
2023-09-08T10:03:48.405Z,3.80
2023-09-08T10:07:00.899Z,4.28
2023-09-08T10:10:13.704Z,4.28
2023-09-08T10:13:29.921Z,4.47
2023-09-08T10:16:43.973Z,4.43
2023-09-08T10:19:56.532Z,4.62
2023-09-08T10:23:14.233Z,5.37
2023-09-08T10:26:28.115Z,4.22
2023-09-08T10:29:40.820Z,4.50
2023-09-08T10:32:53.309Z,4.50
2023-09-08T10:36:06.599Z,3.92
2023-09-08T10:39:43.119Z,4.47
2023-09-08T10:43:08.826Z,4.03
2023-09-08T10:46:25.474Z,4.75
2023-09-08T10:49:39.304Z,4.03
2023-09-08T10:53:09.256Z,4.43
2023-09-08T10:56:22.026Z,4.12
2023-09-08T10:59:37.535Z,3.72
2023-09-08T11:02:50.786Z,3.83
2023-09-08T11:06:03.730Z,4.10
2023-09-08T11:09:16.975Z,4.15
2023-09-08T11:12:29.541Z,4.00
2023-09-08T11:15:42.233Z,4.37
2023-09-08T11:18:54.695Z,4.00
2023-09-08T11:22:07.470Z,3.92
2023-09-08T11:25:21.235Z,4.10
2023-09-08T11:28:34.396Z,4.03
2023-09-08T11:31:52.641Z,4.35
2023-09-08T11:35:10.539Z,4.18
2023-09-08T11:38:29.760Z,4.05
2023-09-08T11:41:42.732Z,4.35
2023-09-08T11:44:55.148Z,3.58
2023-09-08T11:48:07.912Z,3.67
2023-09-08T11:51:27.424Z,4.22
2023-09-08T11:54:51.928Z,4.18
2023-09-08T11:58:08.546Z,4.40
2023-09-08T12:01:21.237Z,4.05
2023-09-08T12:04:37.287Z,4.30
2023-09-08T12:07:51.610Z,4.45
2023-09-08T12:11:04.508Z,4.28
2023-09-08T12:14:17.008Z,4.10
2023-09-08T12:17:29.873Z,4.18
2023-09-08T12:20:42.326Z,4.00
2023-09-08T12:23:55.158Z,4.20
2023-09-08T12:27:07.649Z,4.32
2023-09-08T12:30:22.764Z,3.60
2023-09-08T12:33:36.036Z,3.60
2023-09-08T12:36:48.731Z,3.65
2023-09-08T12:40:02.686Z,3.80
2023-09-08T12:43:26.983Z,3.87
2023-09-08T12:46:41.158Z,3.70
2023-09-08T12:49:55.430Z,3.47
2023-09-08T12:53:07.784Z,3.70
2023-09-08T12:56:20.457Z,3.92
2023-09-08T12:59:32.886Z,4.32
2023-09-08T13:02:45.729Z,4.10
2023-09-08T13:05:58.149Z,3.75
2023-09-08T13:09:10.822Z,3.53
2023-09-08T13:12:23.268Z,4.00
2023-09-08T13:15:36.032Z,3.92
2023-09-08T13:18:48.645Z,4.05
2023-09-08T13:22:01.333Z,4.25
2023-09-08T13:25:13.737Z,4.00
2023-09-08T13:28:26.432Z,3.87
2023-09-08T13:31:38.837Z,4.25
2023-09-08T13:34:51.672Z,3.80
2023-09-08T13:38:04.249Z,4.03
2023-09-08T13:41:17.033Z,4.62
2023-09-08T13:44:29.636Z,4.25
2023-09-08T13:47:42.597Z,3.83
2023-09-08T13:50:59.178Z,3.95
2023-09-08T13:54:13.241Z,4.10
2023-09-08T14:00:44.961Z,4.20
2023-09-08T14:04:03.518Z,4.10
2023-09-08T14:13:50.295Z,4.03
2023-09-08T14:17:03.136Z,3.90
2023-09-08T14:20:15.563Z,4.18
2023-09-08T14:23:28.297Z,3.92
2023-09-08T14:26:40.744Z,4.20
2023-09-08T14:29:53.625Z,4.07
2023-09-08T14:33:07.144Z,4.15
2023-09-08T14:36:20.003Z,4.18
2023-09-08T14:39:32.543Z,4.70
2023-09-08T14:42:45.208Z,4.12
2023-09-08T14:46:02.120Z,3.80
2023-09-08T14:49:16.306Z,3.67
2023-09-08T14:52:28.621Z,3.58
2023-09-08T14:55:43.380Z,4.00
2023-09-08T14:58:56.033Z,3.87
2023-09-08T15:02:11.537Z,4.40
2023-09-08T15:05:23.912Z,4.37
2023-09-08T15:08:36.586Z,4.00
2023-09-08T15:11:49.470Z,3.90
2023-09-08T15:15:02.281Z,4.10
2023-09-08T15:18:14.824Z,4.10
2023-09-08T15:21:30.929Z,4.10
2023-09-08T15:24:43.371Z,3.95
2023-09-08T15:27:56.040Z,3.62
2023-09-08T15:31:08.489Z,4.07
2023-09-08T15:34:21.145Z,3.72
2023-09-08T15:37:34.382Z,4.00
2023-09-08T15:41:05.665Z,4.05
2023-09-08T15:44:18.359Z,3.80
2023-09-08T15:47:31.123Z,3.80
2023-09-08T15:50:43.596Z,3.62
2023-09-08T15:53:56.267Z,3.75
2023-09-08T15:57:10.256Z,4.03
2023-09-08T16:00:22.972Z,3.78
2023-09-08T16:03:36.062Z,3.65
2023-09-08T16:06:49.366Z,3.60
2023-09-08T16:10:04.463Z,4.03
2023-09-08T16:13:16.963Z,3.90
2023-09-08T16:16:29.758Z,3.97
2023-09-08T16:19:43.624Z,4.00
2023-09-08T16:22:56.329Z,4.32
2023-09-08T16:26:09.277Z,3.97
2023-09-08T16:29:22.353Z,3.83
2023-09-08T16:32:34.760Z,3.87
2023-09-08T16:35:47.458Z,4.30
2023-09-08T16:38:59.860Z,3.97
2023-09-08T16:42:15.772Z,3.83
2023-09-08T16:45:28.136Z,3.78
2023-09-08T16:48:40.799Z,4.03
2023-09-08T16:51:55.039Z,3.95
2023-09-08T16:55:12.539Z,4.10
2023-09-08T16:58:25.153Z,4.00
2023-09-08T17:01:38.090Z,4.50
2023-09-08T17:04:50.501Z,4.12
2023-09-08T17:08:03.569Z,4.37
2023-09-08T17:11:16.654Z,4.30
2023-09-08T17:14:30.679Z,4.43
2023-09-08T17:17:43.067Z,4.65
2023-09-08T17:20:59.306Z,4.60
2023-09-08T17:24:12.099Z,4.60
2023-09-08T17:27:24.900Z,4.65
2023-09-08T17:30:37.316Z,4.70
2023-09-08T17:33:50.980Z,5.30
2023-09-08T17:37:03.822Z,5.30
2023-09-08T17:40:16.610Z,5.12
2023-09-08T17:43:29.081Z,5.82
2023-09-08T17:46:42.771Z,5.65
2023-09-08T17:49:55.222Z,5.75
2023-09-08T17:53:09.161Z,6.32
2023-09-08T17:56:21.668Z,6.00
2023-09-08T17:59:34.381Z,6.40
2023-09-08T18:02:46.830Z,6.68
2023-09-08T18:05:59.689Z,6.87
2023-09-08T18:09:12.153Z,6.37
2023-09-08T18:12:24.909Z,6.47
2023-09-08T18:15:37.513Z,6.18
2023-09-08T18:18:50.405Z,6.47
2023-09-08T18:22:05.999Z,6.68
2023-09-08T18:25:18.737Z,6.97
2023-09-08T18:28:31.384Z,6.55
2023-09-08T18:31:44.130Z,6.87
2023-09-08T18:34:56.576Z,6.03
2023-09-08T18:38:10.106Z,6.50
2023-09-08T18:41:22.578Z,6.05
2023-09-08T18:44:40.747Z,6.50
2023-09-08T18:47:53.119Z,6.82
2023-09-08T18:51:05.843Z,6.82
2023-09-08T18:54:18.253Z,6.32
2023-09-08T18:57:31.605Z,6.10
2023-09-08T19:00:45.501Z,6.55
2023-09-08T19:03:58.245Z,6.35
2023-09-08T19:07:10.673Z,6.72
2023-09-08T19:10:23.350Z,6.30
2023-09-08T19:13:36.008Z,6.18
2023-09-08T19:16:48.952Z,6.10
2023-09-08T19:20:01.360Z,6.00
2023-09-08T19:23:14.139Z,6.05
2023-09-08T19:26:26.483Z,6.50
2023-09-08T19:29:39.421Z,5.90
2023-09-08T19:32:51.832Z,5.97
2023-09-08T19:36:04.766Z,6.10
2023-09-08T19:39:17.578Z,5.43
2023-09-08T19:42:30.331Z,5.25
2023-09-08T19:45:42.687Z,5.60
2023-09-08T19:48:55.620Z,4.78
2023-09-08T19:52:08.207Z,5.12
2023-09-08T19:55:20.882Z,4.97
2023-09-08T19:58:33.276Z,4.72
2023-09-08T20:01:47.500Z,5.00
2023-09-08T20:05:00.311Z,4.87
2023-09-08T20:08:13.036Z,4.75
2023-09-08T20:11:25.650Z,5.15
2023-09-08T20:14:37.998Z,4.93
2023-09-08T20:17:50.727Z,5.30
2023-09-08T20:21:04.247Z,5.03
2023-09-08T20:24:17.847Z,4.95
2023-09-08T20:27:30.273Z,4.93
2023-09-08T20:30:43.016Z,5.20
2023-09-08T20:33:55.653Z,5.30
2023-09-08T20:37:08.294Z,5.47
2023-09-08T20:40:20.733Z,5.05
2023-09-08T20:43:33.799Z,4.93
2023-09-08T20:46:47.606Z,4.90
2023-09-08T20:50:00.387Z,4.47
2023-09-08T20:53:12.782Z,5.12
2023-09-08T20:56:25.489Z,4.93
2023-09-08T20:59:37.907Z,4.70
2023-09-08T21:02:50.625Z,4.90
2023-09-08T21:06:03.759Z,4.70
2023-09-08T21:09:16.472Z,5.20
2023-09-08T21:12:28.853Z,4.47
2023-09-08T21:15:42.021Z,4.85
2023-09-08T21:18:54.760Z,4.70
2023-09-08T21:22:07.465Z,4.70
2023-09-08T21:25:19.924Z,4.85
2023-09-08T21:28:32.653Z,5.32
2023-09-08T21:31:49.730Z,4.95
2023-09-08T21:35:02.446Z,4.95
2023-09-08T21:38:14.861Z,5.12
2023-09-08T21:41:27.484Z,4.87
2023-09-08T21:44:39.841Z,5.32
2023-09-08T21:47:53.705Z,4.43
2023-09-08T21:51:06.377Z,4.62
2023-09-08T21:54:19.526Z,4.60
2023-09-08T21:57:31.940Z,5.25
2023-09-08T22:00:44.618Z,4.72
2023-09-08T22:03:57.467Z,4.90
2023-09-08T22:07:09.924Z,4.80
2023-09-08T22:10:23.027Z,5.28
2023-09-08T22:13:37.605Z,4.82
2023-09-08T22:16:50.593Z,4.62
2023-09-08T22:20:13.842Z,4.80
2023-09-08T22:23:26.819Z,4.87
2023-09-08T22:26:39.185Z,4.95
2023-09-08T22:29:51.934Z,5.30
2023-09-08T22:33:04.638Z,4.60
2023-09-08T22:36:17.433Z,4.47
2023-09-08T22:39:30.282Z,4.93
2023-09-08T22:42:43.007Z,4.50
2023-09-08T22:45:55.646Z,4.78
2023-09-08T22:49:08.300Z,4.68
2023-09-08T22:52:20.896Z,4.37
2023-09-08T22:55:33.784Z,4.50
2023-09-08T22:58:46.221Z,4.40
2023-09-08T23:01:58.946Z,4.70
2023-09-08T23:05:12.465Z,5.15
2023-09-08T23:08:25.181Z,5.15
2023-09-08T23:11:37.591Z,4.72
2023-09-08T23:14:54.720Z,4.35
2023-09-08T23:18:10.798Z,4.65
2023-09-08T23:21:23.620Z,4.75
2023-09-08T23:24:35.966Z,4.95
2023-09-08T23:27:48.607Z,5.15
2023-09-08T23:31:01.028Z,4.50
2023-09-08T23:34:13.837Z,4.95
2023-09-08T23:37:26.518Z,4.40
2023-09-08T23:40:39.296Z,4.43
2023-09-08T23:43:51.679Z,4.45
2023-09-08T23:47:07.472Z,4.65
2023-09-08T23:50:19.924Z,4.68
2023-09-08T23:53:32.666Z,4.22
2023-09-08T23:56:45.304Z,4.70
2023-09-08T23:59:58.214Z,4.30
